Time;durP1;ratioP1;P1;durP2;ratioP2;P2;SDS_P1;SDS_P2;PMS_P1;PMS_P2;Temp;Humidity;BMP_temperature;BMP_pressure;BME280_temperature;BME280_humidity;BME280_pressure;Samples;Min_cycle;Max_cycle;Signal;HPM_P1;HPM_P2
2022/01/27 00:02:34;;;;;;;35.37;13.73;;;-1.20;96.30;;;;;;5015497;28;20192;-77
2022/01/27 00:05:20;;;;;;;34.57;14.07;;;-1.20;96.30;;;;;;5014067;28;20203;-76
2022/01/27 00:08:03;;;;;;;28.20;13.77;;;-1.20;96.30;;;;;;5014223;28;20403;-76
2022/01/27 00:12:55;;;;;;;30.70;14.23;;;-1.20;96.30;;;;;;5015648;28;20417;-75
2022/01/27 00:15:28;;;;;;;32.47;13.63;;;-1.20;96.30;;;;;;5013856;28;20173;-75
2022/01/27 00:17:59;;;;;;;28.00;13.73;;;-1.20;96.30;;;;;;5015245;28;20388;-75
2022/01/27 00:30:46;;;;;;;33.17;14.40;;;-1.10;96.30;;;;;;5922517;23;21038;-75
2022/01/27 00:33:11;;;;;;;29.00;13.30;;;-1.20;96.30;;;;;;5013673;28;20415;-75
2022/01/27 00:35:37;;;;;;;40.63;16.47;;;-1.20;96.30;;;;;;5014618;28;20165;-74
2022/01/27 00:38:03;;;;;;;37.47;14.77;;;-1.10;96.30;;;;;;5014937;28;20204;-75
2022/01/27 00:40:29;;;;;;;33.97;15.27;;;-1.20;96.30;;;;;;5014620;28;20205;-75
2022/01/27 00:42:55;;;;;;;31.83;13.80;;;-1.20;96.30;;;;;;5014756;28;20416;-76
2022/01/27 00:45:22;;;;;;;34.17;15.63;;;-1.10;96.30;;;;;;5013274;28;20408;-76
2022/01/27 00:47:48;;;;;;;31.80;13.83;;;-1.10;96.30;;;;;;5014747;28;20247;-76
2022/01/27 00:50:17;;;;;;;38.00;14.27;;;-1.10;96.30;;;;;;5014810;28;20507;-76
2022/01/27 00:52:47;;;;;;;33.77;16.20;;;-1.10;96.30;;;;;;5013497;28;20180;-77
2022/01/27 00:55:14;;;;;;;33.97;15.37;;;-1.10;96.30;;;;;;5014279;28;20436;-76
2022/01/27 05:02:04;;;;;;;13.20;7.90;;;-0.80;96.30;;;;;;5313878;22;20501;-77
2022/01/27 05:04:34;;;;;;;16.43;8.40;;;-0.70;96.30;;;;;;5046550;28;20409;-77
2022/01/27 05:06:59;;;;;;;15.50;8.60;;;-0.70;96.30;;;;;;5053836;28;20489;-78
2022/01/27 05:09:25;;;;;;;14.07;8.87;;;-0.70;96.30;;;;;;5047992;28;20495;-76
2022/01/27 05:11:59;;;;;;;16.97;8.77;;;-0.70;96.30;;;;;;5018795;28;20275;-76
2022/01/27 05:14:25;;;;;;;17.10;10.20;;;-0.80;96.30;;;;;;5012298;28;20201;-75
2022/01/27 05:16:52;;;;;;;17.47;9.37;;;-0.70;96.30;;;;;;5020274;28;20420;-76
2022/01/27 05:19:18;;;;;;;22.83;9.87;;;-0.70;96.30;;;;;;5021424;28;20412;-76
2022/01/27 05:26:47;;;;;;;17.87;8.67;;;-0.70;96.30;;;;;;5010592;28;20459;-75
2022/01/27 05:29:13;;;;;;;15.40;9.10;;;-0.70;96.30;;;;;;5012559;28;20404;-75
2022/01/27 05:31:38;;;;;;;15.43;8.67;;;-0.70;96.30;;;;;;5012434;28;20228;-75
2022/01/27 05:34:05;;;;;;;15.10;8.93;;;-0.80;96.30;;;;;;5013794;28;20514;-75
2022/01/27 05:36:31;;;;;;;13.67;8.73;;;-0.70;96.30;;;;;;5011887;28;20187;-75
2022/01/27 05:38:57;;;;;;;12.53;7.40;;;-0.80;96.30;;;;;;5013755;28;20872;-76
2022/01/27 05:41:23;;;;;;;18.73;10.43;;;-0.70;96.30;;;;;;5012235;28;20487;-76
2022/01/27 05:43:48;;;;;;;13.70;8.33;;;-0.80;96.30;;;;;;5013609;28;20271;-77
2022/01/27 05:46:14;;;;;;;16.83;9.00;;;-0.80;96.30;;;;;;5011448;28;20629;-77
2022/01/27 05:48:39;;;;;;;14.17;8.57;;;-0.80;96.30;;;;;;5012443;28;20173;-77
2022/01/27 05:51:05;;;;;;;13.20;8.03;;;-0.80;96.30;;;;;;5012395;28;20228;-76
2022/01/27 05:53:32;;;;;;;12.67;8.87;;;-0.80;96.30;;;;;;5013361;28;20228;-76
2022/01/27 05:55:58;;;;;;;16.40;10.13;;;-0.80;96.30;;;;;;5012897;28;20177;-76
2022/01/27 05:58:25;;;;;;;15.63;8.20;;;-0.70;96.30;;;;;;5012644;28;20420;-75
2022/01/27 06:00:50;;;;;;;13.27;7.93;;;-0.70;96.30;;;;;;5011886;28;20466;-77
2022/01/27 06:03:16;;;;;;;15.67;10.13;;;-0.70;96.30;;;;;;5013341;28;20439;-76
2022/01/27 06:05:41;;;;;;;16.23;9.60;;;-0.70;96.30;;;;;;5012767;28;20640;-76
2022/01/27 06:08:07;;;;;;;15.03;9.63;;;-0.70;96.30;;;;;;5011987;28;20169;-77
2022/01/27 06:10:32;;;;;;;16.70;10.43;;;-0.70;96.30;;;;;;5013093;28;20197;-76
2022/01/27 06:12:59;;;;;;;14.03;9.03;;;-0.70;96.30;;;;;;5012038;28;20264;-75
2022/01/27 06:15:26;;;;;;;14.37;9.20;;;-0.70;96.30;;;;;;5011263;28;20176;-76
2022/01/27 06:17:52;;;;;;;15.63;8.93;;;-0.80;96.30;;;;;;5010672;28;20424;-76
2022/01/27 06:20:18;;;;;;;16.80;9.60;;;-0.80;96.30;;;;;;5011473;28;20455;-75
2022/01/27 06:22:45;;;;;;;15.03;10.50;;;-0.80;96.30;;;;;;5013003;28;20479;-76
2022/01/27 06:25:13;;;;;;;14.40;9.33;;;-0.80;96.30;;;;;;5011081;28;20486;-76
2022/01/27 06:27:38;;;;;;;10.80;7.87;;;-0.80;96.30;;;;;;5012802;28;20426;-76
2022/01/27 06:30:06;;;;;;;13.03;8.80;;;-0.70;96.30;;;;;;5012574;28;20415;-76
2022/01/27 06:32:33;;;;;;;16.80;9.93;;;-0.70;96.30;;;;;;5012949;28;20193;-77
2022/01/27 06:34:59;;;;;;;15.57;9.70;;;-0.70;96.30;;;;;;5012565;28;20422;-76
2022/01/27 06:37:24;;;;;;;14.10;9.43;;;-0.80;96.30;;;;;;5009940;28;20416;-76
2022/01/27 06:39:52;;;;;;;17.00;10.37;;;-0.80;96.30;;;;;;5014365;28;20223;-75
2022/01/27 06:42:18;;;;;;;17.10;9.80;;;-0.80;96.30;;;;;;5012685;28;20251;-76
2022/01/27 06:44:44;;;;;;;13.90;9.00;;;-0.90;96.30;;;;;;5014334;28;20424;-77
2022/01/27 06:47:09;;;;;;;17.47;8.80;;;-1.00;96.30;;;;;;5015992;28;20428;-76
2022/01/27 06:49:35;;;;;;;12.17;8.30;;;-1.00;96.30;;;;;;5011703;28;20199;-76
2022/01/27 06:52:00;;;;;;;14.73;9.80;;;-1.00;96.30;;;;;;5012516;28;20197;-77
2022/01/27 06:54:25;;;;;;;16.00;9.27;;;-1.10;96.30;;;;;;5009888;28;20180;-76
2022/01/27 06:56:51;;;;;;;15.30;10.73;;;-1.00;96.30;;;;;;4995449;28;20208;-75
2022/01/27 06:59:16;;;;;;;8.70;5.77;;;-1.10;96.30;;;;;;4992913;28;20182;-75
2022/01/27 07:01:42;;;;;;;12.20;8.43;;;-1.10;96.30;;;;;;5007593;28;20204;-77
2022/01/27 07:04:07;;;;;;;9.43;7.03;;;-1.10;96.30;;;;;;5012205;28;20524;-76
2022/01/27 07:06:34;;;;;;;15.43;10.13;;;-1.10;96.30;;;;;;5012261;28;20227;-76
2022/01/27 07:09:00;;;;;;;15.37;9.80;;;-1.10;96.30;;;;;;5012531;28;20177;-77
2022/01/27 07:11:25;;;;;;;16.70;9.60;;;-1.10;96.30;;;;;;5011108;28;20443;-76
2022/01/27 07:13:51;;;;;;;13.47;9.70;;;-1.10;96.30;;;;;;5011242;28;20181;-76
2022/01/27 07:16:17;;;;;;;14.17;9.30;;;-1.10;96.30;;;;;;5012071;28;20173;-77
2022/01/27 07:18:42;;;;;;;12.80;8.70;;;-1.10;96.30;;;;;;5011030;28;20547;-78
2022/01/27 07:21:08;;;;;;;17.33;8.80;;;-1.10;96.30;;;;;;5012091;28;20219;-78
2022/01/27 07:23:33;;;;;;;12.57;8.53;;;-1.10;96.30;;;;;;5010903;28;20250;-77
2022/01/27 07:25:59;;;;;;;13.57;10.20;;;-1.20;96.30;;;;;;5010624;28;20195;-78
2022/01/27 07:28:24;;;;;;;16.03;8.93;;;-1.20;96.30;;;;;;5010852;28;20184;-78
2022/01/27 07:30:50;;;;;;;16.13;10.97;;;-1.20;96.30;;;;;;5012115;28;20204;-78
2022/01/27 07:33:15;;;;;;;15.37;9.30;;;-1.20;96.30;;;;;;5010870;28;20208;-77
2022/01/27 07:35:41;;;;;;;15.80;10.57;;;-1.20;96.30;;;;;;5012433;28;20350;-78
2022/01/27 07:38:07;;;;;;;13.77;9.67;;;-1.20;96.30;;;;;;5012630;28;20271;-78
2022/01/27 07:40:33;;;;;;;15.67;9.07;;;-1.20;96.30;;;;;;5011855;28;20213;-78
2022/01/27 07:42:59;;;;;;;15.73;10.20;;;-1.20;96.30;;;;;;5011032;28;20603;-78
2022/01/27 07:45:24;;;;;;;16.10;9.90;;;-1.20;96.30;;;;;;5010689;28;20443;-78
2022/01/27 07:47:50;;;;;;;17.83;10.67;;;-1.20;96.30;;;;;;5010911;28;20220;-77
2022/01/27 07:50:16;;;;;;;15.73;9.73;;;-1.20;96.30;;;;;;5012250;28;20261;-77
2022/01/27 07:52:41;;;;;;;20.43;11.07;;;-1.20;96.30;;;;;;5012358;28;20208;-78
2022/01/27 07:55:08;;;;;;;14.00;9.63;;;-1.10;96.30;;;;;;5010485;28;20216;-78
2022/01/27 07:57:34;;;;;;;14.63;9.13;;;-1.10;96.30;;;;;;5011864;28;20264;-77
2022/01/27 07:59:59;;;;;;;15.70;9.43;;;-1.00;96.30;;;;;;5010529;28;20462;-78
2022/01/27 08:02:25;;;;;;;19.10;9.80;;;-0.90;96.30;;;;;;5011636;28;20216;-77
2022/01/27 08:04:51;;;;;;;11.60;8.67;;;-0.90;96.30;;;;;;5011972;28;20173;-78
2022/01/27 08:07:16;;;;;;;16.77;10.37;;;-0.90;96.30;;;;;;5010759;28;20420;-77
2022/01/27 08:09:42;;;;;;;13.70;9.53;;;-1.00;96.30;;;;;;5012052;28;20744;-78
2022/01/27 08:12:07;;;;;;;11.30;8.93;;;-0.90;96.30;;;;;;5011840;28;20571;-76
2022/01/27 08:14:33;;;;;;;14.57;9.97;;;-0.80;96.30;;;;;;5011850;28;20181;-77
2022/01/27 08:16:58;;;;;;;13.03;7.60;;;-0.70;96.30;;;;;;5013410;28;20176;-78
2022/01/27 08:19:24;;;;;;;15.90;9.80;;;-0.70;96.30;;;;;;5014577;28;20235;-78
2022/01/27 08:21:49;;;;;;;14.00;10.33;;;-0.60;96.30;;;;;;5015428;28;20209;-77
2022/01/27 08:24:15;;;;;;;15.30;8.90;;;-0.60;96.30;;;;;;5013903;28;20199;-76
2022/01/27 08:26:44;;;;;;;14.00;8.93;;;-0.50;96.30;;;;;;5015055;28;20730;-78
2022/01/27 08:29:14;;;;;;;15.30;8.50;;;-0.50;96.30;;;;;;5013890;28;20299;-77
2022/01/27 08:31:53;;;;;;;16.40;9.37;;;-0.40;96.30;;;;;;5014915;28;20458;-78
2022/01/27 08:34:28;;;;;;;11.23;8.13;;;-0.50;96.30;;;;;;5014833;28;20431;-77
2022/01/27 08:36:54;;;;;;;15.77;9.30;;;-0.50;96.30;;;;;;5014940;28;20492;-77
2022/01/27 08:39:19;;;;;;;13.27;9.03;;;-0.40;96.30;;;;;;5013525;28;20844;-77
2022/01/27 08:41:45;;;;;;;15.37;9.00;;;-0.40;96.30;;;;;;5013289;28;20208;-78
2022/01/27 08:44:10;;;;;;;9.73;7.20;;;-0.40;96.30;;;;;;5014821;28;20173;-78
2022/01/27 08:46:36;;;;;;;12.17;8.07;;;-0.40;96.30;;;;;;5013035;28;20219;-77
2022/01/27 08:49:03;;;;;;;16.70;10.23;;;-0.40;96.30;;;;;;5014619;28;20177;-77
2022/01/27 08:51:30;;;;;;;13.73;8.10;;;-0.40;96.30;;;;;;5014541;28;20443;-78
2022/01/27 08:53:55;;;;;;;15.80;9.43;;;-0.30;96.30;;;;;;5014462;28;20473;-78
2022/01/27 08:56:21;;;;;;;13.00;8.10;;;-0.30;96.30;;;;;;5014316;28;20420;-77
2022/01/27 08:58:46;;;;;;;10.87;7.80;;;-0.20;96.30;;;;;;5014440;28;20177;-78
2022/01/27 09:01:12;;;;;;;16.53;9.50;;;-0.20;96.30;;;;;;5014317;28;20593;-78
2022/01/27 09:03:38;;;;;;;18.53;10.90;;;-0.10;96.30;;;;;;5014304;28;20173;-77
2022/01/27 09:06:03;;;;;;;14.33;9.80;;;-0.10;96.30;;;;;;5014094;28;20176;-78
2022/01/27 09:08:29;;;;;;;15.23;8.67;;;0.00;96.30;;;;;;5014323;28;20181;-78
2022/01/27 09:10:54;;;;;;;16.60;9.70;;;0.10;96.30;;;;;;5014087;28;20208;-78
2022/01/27 09:13:20;;;;;;;19.00;10.90;;;0.20;96.30;;;;;;5013927;28;20611;-78
2022/01/27 09:15:48;;;;;;;13.10;8.60;;;0.10;96.30;;;;;;5012585;28;20558;-77
2022/01/27 09:18:14;;;;;;;14.27;9.30;;;0.20;96.30;;;;;;5014106;28;20260;-78
2022/01/27 09:20:40;;;;;;;18.30;10.30;;;0.10;96.30;;;;;;5012769;28;20550;-77
2022/01/27 09:23:13;;;;;;;20.63;11.30;;;0.30;96.30;;;;;;5012631;28;20416;-78
2022/01/27 09:25:43;;;;;;;17.10;10.33;;;0.30;96.30;;;;;;5013596;28;20223;-77
2022/01/27 09:28:09;;;;;;;14.03;10.13;;;0.40;96.30;;;;;;5012385;28;20447;-76
2022/01/27 09:30:34;;;;;;;14.60;10.33;;;0.40;96.30;;;;;;5014081;28;20443;-77
2022/01/27 09:33:00;;;;;;;14.73;10.30;;;0.40;96.30;;;;;;5014133;28;20173;-77
2022/01/27 09:35:27;;;;;;;14.93;9.97;;;0.40;96.30;;;;;;5014112;28;20208;-77
2022/01/27 09:37:53;;;;;;;16.60;10.10;;;0.60;96.30;;;;;;5014172;28;20259;-77
2022/01/27 09:40:19;;;;;;;12.70;8.90;;;0.60;96.30;;;;;;5013914;28;20542;-77
2022/01/27 09:42:53;;;;;;;12.57;9.00;;;0.60;96.30;;;;;;5013890;28;20196;-77
2022/01/27 09:45:20;;;;;;;15.70;9.43;;;0.60;96.30;;;;;;5013968;28;20523;-77
2022/01/27 09:47:54;;;;;;;14.07;7.07;;;0.70;96.30;;;;;;5013837;28;20896;-77
2022/01/27 09:50:27;;;;;;;11.40;7.70;;;0.80;96.30;;;;;;5012771;28;20416;-78
2022/01/27 09:52:54;;;;;;;18.50;9.97;;;1.00;96.30;;;;;;5014220;28;20568;-78
2022/01/27 09:55:20;;;;;;;13.57;9.10;;;1.10;96.30;;;;;;5013606;28;20416;-79
2022/01/27 09:57:46;;;;;;;14.20;9.13;;;1.20;96.30;;;;;;5012283;28;21102;-80
2022/01/27 10:00:12;;;;;;;15.70;10.20;;;1.10;96.30;;;;;;5012138;28;20424;-79
2022/01/27 10:02:39;;;;;;;13.17;9.07;;;1.10;96.30;;;;;;5012349;28;20700;-79
2022/01/27 10:05:05;;;;;;;12.50;8.40;;;1.00;96.30;;;;;;5012084;28;20416;-79
2022/01/27 10:07:39;;;;;;;15.37;10.00;;;1.00;96.30;;;;;;5012247;28;20487;-79
2022/01/27 10:10:06;;;;;;;16.67;9.10;;;0.80;96.30;;;;;;5013326;28;20407;-74
2022/01/27 10:12:38;;;;;;;14.47;9.83;;;0.80;96.30;;;;;;5017434;28;20443;-75
2022/01/27 10:15:13;;;;;;;12.27;8.80;;;0.70;96.30;;;;;;5019372;28;20392;-72
2022/01/27 10:18:03;;;;;;;17.33;9.63;;;0.80;96.30;;;;;;5013306;28;20411;-72
2022/01/27 10:20:29;;;;;;;15.53;9.90;;;1.00;96.30;;;;;;5013115;28;20614;-72
2022/01/27 10:23:11;;;;;;;13.80;8.43;;;1.10;96.30;;;;;;5013336;28;20943;-72
2022/01/27 10:25:47;;;;;;;15.67;8.37;;;1.00;96.30;;;;;;5012563;28;20221;-74
2022/01/27 10:28:49;;;;;;;15.20;9.47;;;1.00;96.30;;;;;;5011559;28;20431;-73
2022/01/27 10:31:20;;;;;;;16.10;10.00;;;1.10;96.30;;;;;;5011438;28;20447;-73
2022/01/27 10:34:03;;;;;;;12.47;8.93;;;1.10;96.30;;;;;;5011486;28;20423;-73
2022/01/27 10:36:35;;;;;;;13.37;9.00;;;1.10;96.30;;;;;;5011467;28;20424;-74
2022/01/27 10:39:16;;;;;;;12.80;8.60;;;1.00;96.30;;;;;;5011995;28;20514;-73
2022/01/27 10:41:56;;;;;;;15.50;9.77;;;0.90;96.30;;;;;;5012494;28;20458;-73
2022/01/27 10:44:31;;;;;;;13.10;8.43;;;0.80;96.30;;;;;;5012528;28;20427;-72
2022/01/27 10:47:09;;;;;;;18.47;10.27;;;0.80;96.30;;;;;;5012637;28;20461;-73
2022/01/27 10:49:40;;;;;;;14.37;9.57;;;0.70;96.30;;;;;;5012658;28;20896;-73
2022/01/27 10:52:28;;;;;;;14.43;9.40;;;0.80;96.30;;;;;;5011130;28;20450;-73
2022/01/27 10:55:00;;;;;;;16.17;9.70;;;0.80;96.30;;;;;;5012457;28;20408;-73
2022/01/27 10:57:26;;;;;;;13.47;9.73;;;0.80;96.30;;;;;;5011356;28;20428;-74
2022/01/27 11:00:10;;;;;;;16.00;10.10;;;0.80;96.30;;;;;;5012452;28;20430;-73
2022/01/27 11:02:56;;;;;;;14.70;9.10;;;0.80;96.30;;;;;;5012523;28;20916;-74
2022/01/27 11:05:26;;;;;;;14.40;8.73;;;0.90;96.30;;;;;;5012311;28;20387;-76
2022/01/27 11:07:53;;;;;;;13.73;9.97;;;0.90;96.30;;;;;;5012485;28;20455;-76
2022/01/27 11:10:20;;;;;;;13.87;9.77;;;1.00;96.30;;;;;;5010937;28;20412;-76
2022/01/27 11:12:46;;;;;;;16.00;10.20;;;0.90;96.30;;;;;;5010858;28;20835;-75
2022/01/27 11:15:14;;;;;;;14.33;9.33;;;0.90;96.30;;;;;;5012645;28;20427;-77
2022/01/27 11:17:41;;;;;;;12.77;9.63;;;0.90;96.30;;;;;;5011201;28;20793;-77
2022/01/27 15:20:38;;;;;;;3.70;3.20;;;0.90;96.30;;;;;;4992806;28;20495;-77
2022/01/27 15:23:03;;;;;;;4.33;3.20;;;0.90;96.30;;;;;;4991387;28;20936;-76
2022/01/27 15:25:29;;;;;;;6.37;3.77;;;0.80;96.30;;;;;;4992739;28;20170;-77
2022/01/27 15:27:55;;;;;;;4.60;3.53;;;0.80;96.30;;;;;;4995607;28;20181;-77
2022/01/27 15:30:22;;;;;;;3.40;3.10;;;0.80;96.30;;;;;;4995769;28;20196;-78
2022/01/27 15:32:49;;;;;;;5.07;3.17;;;0.80;96.30;;;;;;4996910;28;20256;-76
2022/01/27 15:35:15;;;;;;;6.20;4.30;;;0.80;96.30;;;;;;4994775;28;20449;-76
2022/01/27 15:37:45;;;;;;;3.27;2.90;;;0.80;96.30;;;;;;4995463;28;20459;-78
2022/01/27 15:40:16;;;;;;;4.80;3.47;;;0.80;96.30;;;;;;4995540;28;20424;-76
2022/01/27 15:42:47;;;;;;;4.77;3.20;;;0.80;96.30;;;;;;4996774;28;20408;-77
2022/01/27 15:45:14;;;;;;;3.80;3.23;;;0.90;96.30;;;;;;4995587;28;20409;-76
2022/01/27 15:47:40;;;;;;;4.03;2.77;;;0.90;96.30;;;;;;4995466;28;20491;-75
2022/01/27 15:50:09;;;;;;;5.07;3.10;;;0.80;96.30;;;;;;4995403;28;20792;-76
2022/01/27 15:52:35;;;;;;;3.73;2.60;;;0.90;96.30;;;;;;4996420;28;20197;-77
2022/01/27 15:55:03;;;;;;;4.87;2.93;;;1.00;96.30;;;;;;4995930;28;20487;-75
2022/01/27 15:57:29;;;;;;;6.07;2.80;;;1.00;96.30;;;;;;4995337;28;20276;-76
2022/01/27 15:59:54;;;;;;;5.03;2.70;;;1.00;96.30;;;;;;4996267;28;20450;-76
2022/01/27 16:02:20;;;;;;;3.00;2.70;;;1.00;96.30;;;;;;4994858;28;20198;-77
2022/01/27 16:04:46;;;;;;;3.60;2.87;;;0.90;96.30;;;;;;4994762;28;20241;-77
2022/01/27 16:07:12;;;;;;;3.40;2.70;;;0.90;96.30;;;;;;4994421;28;20174;-76
2022/01/27 16:09:37;;;;;;;5.50;4.23;;;0.90;96.30;;;;;;4994254;28;20170;-77
2022/01/27 16:12:03;;;;;;;3.83;2.53;;;1.00;96.30;;;;;;4993669;28;20253;-76
2022/01/27 16:14:28;;;;;;;2.50;2.10;;;1.10;96.30;;;;;;4994937;28;20188;-78
2022/01/27 16:16:54;;;;;;;3.33;2.33;;;1.10;96.30;;;;;;4994199;28;20170;-77
2022/01/27 16:19:20;;;;;;;2.77;2.37;;;1.10;96.30;;;;;;4995141;28;20214;-77
2022/01/27 16:21:46;;;;;;;2.07;1.87;;;1.10;96.30;;;;;;4994700;28;20222;-77
2022/01/27 16:24:13;;;;;;;10.30;2.33;;;1.20;96.30;;;;;;4995290;28;20249;-77
2022/01/27 16:26:39;;;;;;;2.60;2.23;;;1.20;96.30;;;;;;4994632;28;20449;-79
2022/01/27 16:29:05;;;;;;;2.63;2.00;;;1.20;96.30;;;;;;4994384;28;20421;-79
2022/01/27 16:31:31;;;;;;;2.90;2.07;;;1.20;96.30;;;;;;4994738;28;20460;-78
2022/01/27 16:33:56;;;;;;;2.60;1.90;;;1.20;96.30;;;;;;4994488;28;20181;-79
2022/01/27 16:36:22;;;;;;;3.30;2.30;;;1.20;96.30;;;;;;4992339;28;20472;-79
2022/01/27 16:38:48;;;;;;;6.57;2.10;;;1.30;96.30;;;;;;4994458;28;20181;-78
2022/01/27 16:41:13;;;;;;;2.33;1.80;;;1.40;96.30;;;;;;4995789;28;20720;-79
2022/01/27 16:43:39;;;;;;;2.07;1.47;;;1.30;96.30;;;;;;4995468;28;20209;-79
2022/01/27 16:46:05;;;;;;;2.73;2.40;;;1.30;96.30;;;;;;4995824;28;20586;-79
2022/01/27 16:48:30;;;;;;;2.70;2.33;;;1.40;96.30;;;;;;4994879;28;20185;-78
2022/01/27 16:50:56;;;;;;;1.87;1.77;;;1.40;96.30;;;;;;4966856;28;20224;-79
2022/01/27 16:53:23;;;;;;;2.37;2.17;;;1.30;96.30;;;;;;4980818;28;20190;-80
2022/01/27 16:55:51;;;;;;;3.13;2.30;;;1.30;96.30;;;;;;4973098;28;20167;-80
2022/01/27 16:58:16;;;;;;;2.87;2.07;;;1.30;96.30;;;;;;4973412;28;20429;-78
2022/01/27 17:00:42;;;;;;;2.20;2.00;;;1.30;96.30;;;;;;4974652;28;20823;-78
2022/01/27 17:03:07;;;;;;;3.47;2.03;;;1.40;96.30;;;;;;4978623;28;20336;-80
2022/01/27 17:05:33;;;;;;;1.87;1.63;;;1.40;96.30;;;;;;4977856;28;20179;-77
2022/01/27 17:07:59;;;;;;;3.67;2.10;;;1.30;96.30;;;;;;4974107;28;20177;-77
2022/01/27 17:10:25;;;;;;;2.80;2.10;;;1.30;96.30;;;;;;4973696;28;20424;-77
2022/01/27 17:12:50;;;;;;;2.40;1.87;;;1.40;96.30;;;;;;4974024;28;20972;-77
2022/01/27 17:15:16;;;;;;;5.23;2.03;;;1.40;96.30;;;;;;4973859;28;20187;-76
2022/01/27 17:17:46;;;;;;;2.10;1.90;;;1.40;96.30;;;;;;4973193;28;20178;-80
2022/01/27 17:20:13;;;;;;;2.67;2.20;;;1.50;96.30;;;;;;4986021;28;20181;-77
2022/01/27 17:22:39;;;;;;;3.90;2.40;;;1.50;96.30;;;;;;4972643;28;20430;-77
2022/01/27 17:25:07;;;;;;;11.60;6.87;;;1.50;96.30;;;;;;4974178;28;20969;-77
2022/01/27 17:27:34;;;;;;;2.63;2.00;;;1.50;96.30;;;;;;4974000;28;20521;-77
2022/01/27 17:30:00;;;;;;;3.50;2.70;;;1.50;96.30;;;;;;4974979;28;20413;-80
2022/01/27 17:45:24;;;;;;;2.80;2.53;;;1.60;96.30;;;;;;5607917;23;20487;-78
2022/01/27 17:47:51;;;;;;;2.10;1.80;;;1.70;96.30;;;;;;4993901;28;20953;-80
2022/01/27 17:50:18;;;;;;;2.60;1.60;;;1.70;96.30;;;;;;5013228;28;20495;-83
2022/01/27 17:52:44;;;;;;;5.53;3.37;;;1.80;96.30;;;;;;5015115;28;20412;-82
2022/01/27 17:55:10;;;;;;;2.17;1.53;;;1.70;96.30;;;;;;5013478;28;20416;-81
2022/01/27 17:57:35;;;;;;;3.00;2.40;;;1.70;96.30;;;;;;5013421;28;20264;-83
2022/01/27 18:00:03;;;;;;;3.83;2.33;;;1.70;96.30;;;;;;5013677;28;20405;-80
2022/01/27 18:02:28;;;;;;;2.83;1.60;;;1.70;96.30;;;;;;5013181;28;20247;-77
2022/01/27 18:04:54;;;;;;;5.10;2.00;;;1.70;96.30;;;;;;5007843;28;20455;-78
2022/01/27 18:07:21;;;;;;;2.90;2.10;;;1.70;96.30;;;;;;5006566;28;20267;-79
2022/01/27 18:09:49;;;;;;;4.50;3.50;;;1.70;96.30;;;;;;5012763;28;20167;-80
2022/01/27 18:12:14;;;;;;;2.23;1.97;;;1.70;96.30;;;;;;5006222;28;20436;-78
2022/01/27 18:14:41;;;;;;;2.30;1.73;;;1.70;96.30;;;;;;5005340;28;20432;-79
2022/01/27 18:17:07;;;;;;;1.70;1.60;;;1.70;96.30;;;;;;4993105;28;20540;-78
2022/01/27 18:19:33;;;;;;;2.30;2.10;;;1.70;96.30;;;;;;5009299;28;20492;-78
2022/01/27 18:21:58;;;;;;;2.43;1.90;;;1.70;96.30;;;;;;5011349;28;21510;-78
2022/01/27 18:24:24;;;;;;;2.17;1.97;;;1.70;96.30;;;;;;5010982;28;20184;-79
2022/01/27 18:26:49;;;;;;;2.30;2.10;;;1.70;96.30;;;;;;4993292;28;20182;-79
2022/01/27 18:29:15;;;;;;;2.57;2.37;;;1.60;96.30;;;;;;5000504;28;20184;-81
2022/01/27 18:31:41;;;;;;;2.03;1.80;;;1.60;96.30;;;;;;5016201;28;20196;-80
2022/01/27 18:34:06;;;;;;;2.80;1.87;;;1.60;96.30;;;;;;5002402;28;20213;-81
2022/01/27 18:36:32;;;;;;;2.10;1.90;;;1.60;96.30;;;;;;4995347;28;20209;-80
2022/01/27 18:38:57;;;;;;;4.70;2.27;;;1.70;96.30;;;;;;5004542;28;20667;-80
2022/01/27 18:41:23;;;;;;;1.83;1.70;;;1.60;96.30;;;;;;4977339;28;20209;-80
2022/01/27 18:43:49;;;;;;;3.03;1.93;;;1.60;96.30;;;;;;4977269;28;20643;-81
2022/01/27 18:46:20;;;;;;;4.10;2.00;;;1.70;96.30;;;;;;4981452;28;20207;-81
2022/01/27 18:48:45;;;;;;;2.10;1.87;;;1.80;96.30;;;;;;4998761;28;20481;-80
2022/01/27 18:51:11;;;;;;;2.40;1.90;;;1.70;96.30;;;;;;4994983;28;20472;-80
2022/01/27 18:53:36;;;;;;;2.80;1.53;;;1.80;96.30;;;;;;4996235;28;20173;-80
2022/01/27 18:56:02;;;;;;;2.53;2.03;;;1.80;96.30;;;;;;4983595;28;20185;-78
2022/01/27 18:58:28;;;;;;;2.10;1.90;;;1.80;96.30;;;;;;4993181;28;20627;-79
2022/01/27 19:00:55;;;;;;;2.20;1.90;;;1.70;96.30;;;;;;5007934;28;20200;-79
2022/01/27 19:03:21;;;;;;;2.80;1.80;;;1.70;96.30;;;;;;5014460;28;20182;-79
2022/01/27 19:05:46;;;;;;;1.70;1.60;;;1.70;96.30;;;;;;5008703;28;20421;-79
2022/01/27 19:08:13;;;;;;;3.23;2.73;;;1.60;96.30;;;;;;4995146;28;20228;-78
2022/01/27 19:10:42;;;;;;;2.47;1.73;;;1.60;96.30;;;;;;5010808;28;20204;-78
2022/01/27 19:13:08;;;;;;;2.90;2.00;;;1.50;96.30;;;;;;5010985;28;20986;-79
2022/01/27 19:15:39;;;;;;;2.23;2.03;;;1.60;96.30;;;;;;5003273;28;20420;-77
2022/01/27 19:18:06;;;;;;;3.30;2.37;;;1.60;96.30;;;;;;4991028;28;20416;-78
2022/01/27 19:20:32;;;;;;;2.30;2.07;;;1.60;96.30;;;;;;4992130;28;20847;-77
2022/01/27 19:23:00;;;;;;;3.20;2.23;;;1.50;96.30;;;;;;4981316;28;20469;-78
2022/01/27 19:25:28;;;;;;;2.90;1.80;;;1.50;96.30;;;;;;4998571;28;20638;-78
2022/01/27 19:27:53;;;;;;;2.67;1.97;;;1.50;96.30;;;;;;5010586;28;20936;-77
2022/01/27 19:30:19;;;;;;;1.93;1.40;;;1.50;96.30;;;;;;5011660;28;20415;-78
2022/01/27 19:32:47;;;;;;;2.57;2.30;;;1.60;96.30;;;;;;5009608;28;20180;-77
2022/01/27 19:35:17;;;;;;;2.23;1.90;;;1.60;96.30;;;;;;5006587;28;20216;-77
2022/01/27 19:37:44;;;;;;;2.23;1.97;;;1.60;96.30;;;;;;4991160;28;20421;-77
2022/01/27 19:40:11;;;;;;;4.23;2.03;;;1.60;96.30;;;;;;4992633;28;20397;-78
2022/01/27 19:42:37;;;;;;;2.00;1.47;;;1.60;96.30;;;;;;4990725;28;20468;-79
2022/01/27 19:45:04;;;;;;;3.13;2.63;;;1.60;96.30;;;;;;4991049;28;21036;-79
2022/01/27 19:47:30;;;;;;;3.20;2.10;;;1.50;96.30;;;;;;4991055;28;20170;-77
2022/01/27 19:49:57;;;;;;;3.17;2.70;;;1.60;96.30;;;;;;4991065;28;20511;-79
2022/01/27 19:52:26;;;;;;;4.13;2.20;;;1.70;96.30;;;;;;4991105;28;20201;-79
2022/01/27 19:54:52;;;;;;;2.90;1.97;;;1.70;96.30;;;;;;4990843;28;20417;-80
2022/01/27 19:57:17;;;;;;;4.50;2.60;;;1.70;96.30;;;;;;4991153;28;20507;-78
2022/01/27 19:59:43;;;;;;;3.67;2.90;;;1.60;96.30;;;;;;4992286;28;20492;-79
2022/01/27 20:02:09;;;;;;;2.87;2.50;;;1.60;96.30;;;;;;4990685;28;20206;-80
2022/01/27 20:04:36;;;;;;;5.30;3.40;;;1.60;96.30;;;;;;4991875;28;20181;-80
2022/01/27 20:07:20;;;;;;;4.33;3.33;;;1.60;96.30;;;;;;4990856;28;20424;-80
2022/01/27 20:09:46;;;;;;;4.90;3.33;;;1.60;96.30;;;;;;4992401;28;20423;-79
2022/01/27 20:12:15;;;;;;;5.33;3.53;;;1.60;96.30;;;;;;4994078;28;20437;-78
2022/01/27 20:14:46;;;;;;;4.37;3.50;;;1.60;96.30;;;;;;4994477;28;20181;-77
2022/01/27 20:17:12;;;;;;;4.00;3.17;;;1.60;96.30;;;;;;4995814;28;20893;-78
2022/01/27 20:19:38;;;;;;;6.20;4.10;;;1.70;96.30;;;;;;4995716;28;20412;-78
2022/01/27 20:22:05;;;;;;;3.80;3.40;;;1.70;96.30;;;;;;4995450;28;21019;-78
2022/01/27 20:24:34;;;;;;;4.87;3.77;;;1.70;96.30;;;;;;4994178;28;20424;-78
2022/01/27 20:27:02;;;;;;;5.80;4.13;;;1.60;96.30;;;;;;4994147;28;20453;-79
2022/01/27 20:29:27;;;;;;;4.27;3.20;;;1.50;96.30;;;;;;4995584;28;20409;-76
2022/01/27 20:31:53;;;;;;;3.73;3.30;;;1.40;96.30;;;;;;4995400;28;20440;-76
2022/01/27 20:34:19;;;;;;;5.40;3.43;;;1.30;96.30;;;;;;4995259;28;20216;-77
2022/01/27 20:36:45;;;;;;;4.07;3.23;;;1.20;96.30;;;;;;4993968;28;20511;-78
2022/01/27 20:39:14;;;;;;;3.90;2.90;;;1.10;96.30;;;;;;4995349;28;20177;-77
2022/01/27 20:41:40;;;;;;;3.50;3.20;;;1.00;96.30;;;;;;4995041;28;20224;-77
2022/01/27 20:44:06;;;;;;;3.63;3.13;;;0.90;96.30;;;;;;4994031;28;20960;-78
2022/01/27 20:46:31;;;;;;;4.00;2.97;;;0.80;96.30;;;;;;4994882;28;20190;-78
2022/01/27 20:48:59;;;;;;;3.00;2.70;;;0.80;96.30;;;;;;4995221;28;20767;-78
2022/01/27 20:51:24;;;;;;;2.67;2.40;;;0.80;96.30;;;;;;4994994;28;20295;-78
2022/01/27 20:53:55;;;;;;;5.50;2.87;;;0.80;96.30;;;;;;4995098;28;20417;-77
2022/01/27 20:56:21;;;;;;;2.87;2.63;;;0.80;96.30;;;;;;4994858;28;20573;-76
2022/01/27 20:58:47;;;;;;;3.17;2.60;;;0.80;96.30;;;;;;4994948;28;20421;-76
2022/01/27 21:01:13;;;;;;;4.97;2.90;;;0.70;96.30;;;;;;4994720;28;20472;-77
2022/01/27 21:03:39;;;;;;;3.50;3.20;;;0.70;96.30;;;;;;4994891;28;20427;-76
2022/01/27 21:06:05;;;;;;;4.50;2.90;;;0.60;96.30;;;;;;4991756;28;20436;-77
2022/01/27 21:08:31;;;;;;;4.43;3.23;;;0.60;96.30;;;;;;4994802;28;20177;-78
2022/01/27 21:10:57;;;;;;;6.00;3.53;;;0.60;96.30;;;;;;4993464;28;20539;-78
2022/01/27 21:13:25;;;;;;;5.20;3.77;;;0.60;96.30;;;;;;4994542;28;20516;-78
2022/01/27 21:15:56;;;;;;;4.53;3.80;;;0.70;96.30;;;;;;4994226;28;20177;-78
2022/01/27 21:18:22;;;;;;;6.30;3.70;;;0.70;96.30;;;;;;4994603;28;20443;-78
2022/01/27 21:20:48;;;;;;;5.43;4.37;;;0.80;96.30;;;;;;4994306;28;20487;-78
2022/01/27 21:23:14;;;;;;;3.30;3.00;;;0.80;96.30;;;;;;5011221;28;20454;-78